createdAt,value
2018-06-24T00:00:39.977Z,14.36
2018-06-24T00:01:20.528Z,14.36
2018-06-24T00:02:01.098Z,14.36
2018-06-24T00:02:41.674Z,14.43
2018-06-24T00:03:22.268Z,14.37
2018-06-24T00:04:02.821Z,14.47
2018-06-24T00:04:43.396Z,14.5
2018-06-24T00:05:23.967Z,14.4
2018-06-24T00:06:04.509Z,14.47
2018-06-24T00:06:45.094Z,14.45
2018-06-24T00:07:25.623Z,14.44
2018-06-24T00:08:06.192Z,14.48
2018-06-24T00:08:46.763Z,14.44
2018-06-24T00:09:27.319Z,14.47
2018-06-24T00:10:07.881Z,14.5
2018-06-24T00:10:48.419Z,14.47
2018-06-24T00:11:28.977Z,14.41
2018-06-24T00:12:09.533Z,14.43
2018-06-24T00:12:50.088Z,14.41
2018-06-24T00:13:30.648Z,14.33
2018-06-24T00:14:11.276Z,14.36
2018-06-24T00:14:51.784Z,14.4
2018-06-24T00:15:32.393Z,14.41
2018-06-24T00:16:12.984Z,14.48
2018-06-24T00:16:53.527Z,14.48
2018-06-24T00:17:34.069Z,14.43
2018-06-24T00:18:14.637Z,14.36
2018-06-24T00:18:55.225Z,14.36
2018-06-24T00:19:35.782Z,14.4
2018-06-24T00:20:16.356Z,14.43
2018-06-24T00:20:56.900Z,14.44
2018-06-24T00:21:37.454Z,14.37
2018-06-24T00:22:18.007Z,14.37
2018-06-24T00:22:58.553Z,14.41
2018-06-24T00:23:39.122Z,14.44
2018-06-24T00:24:19.720Z,14.36
2018-06-24T00:25:00.285Z,14.33
2018-06-24T00:25:40.852Z,14.41
2018-06-24T00:26:21.416Z,14.32
2018-06-24T00:27:01.985Z,14.4
2018-06-24T00:27:42.548Z,14.33
2018-06-24T00:28:23.110Z,14.4
2018-06-24T00:29:03.707Z,14.43
2018-06-24T00:29:44.559Z,14.35
2018-06-24T00:30:25.211Z,14.36
2018-06-24T00:31:05.772Z,14.32
2018-06-24T00:31:46.414Z,14.36
2018-06-24T00:32:26.976Z,14.32
2018-06-24T00:33:07.594Z,14.33
2018-06-24T00:33:48.205Z,14.32
2018-06-24T00:34:28.822Z,14.36
2018-06-24T00:35:09.438Z,14.41
2018-06-24T00:35:50.133Z,14.29
2018-06-24T00:36:30.733Z,14.29
2018-06-24T00:37:11.485Z,14.41
2018-06-24T00:37:52.011Z,14.3
2018-06-24T00:38:32.567Z,14.3
2018-06-24T00:39:13.261Z,14.33
2018-06-24T00:39:53.794Z,14.4
2018-06-24T00:40:34.344Z,14.29
2018-06-24T00:41:15.004Z,14.29
2018-06-24T00:41:55.556Z,14.36
2018-06-24T00:42:36.212Z,14.36
2018-06-24T00:43:16.633Z,14.35
2018-06-24T00:43:57.220Z,14.35
2018-06-24T00:44:37.761Z,14.4
2018-06-24T00:45:18.306Z,14.41
2018-06-24T00:45:58.873Z,14.35
2018-06-24T00:46:39.438Z,14.36
2018-06-24T00:47:20.094Z,14.36
2018-06-24T00:48:00.555Z,14.4
2018-06-24T00:48:41.150Z,14.41
2018-06-24T00:49:21.729Z,14.45
2018-06-24T00:50:02.255Z,14.35
2018-06-24T00:50:42.811Z,14.4
2018-06-24T00:51:23.384Z,14.41
2018-06-24T00:52:03.947Z,14.36
2018-06-24T00:52:44.526Z,14.41
2018-06-24T00:53:25.089Z,14.43
2018-06-24T00:54:05.653Z,14.33
2018-06-24T00:54:46.242Z,14.43
2018-06-24T00:55:26.801Z,14.44
2018-06-24T00:56:07.403Z,14.41
2018-06-24T00:56:47.972Z,14.35
2018-06-24T00:57:28.517Z,14.36
2018-06-24T00:58:09.075Z,14.33
2018-06-24T00:58:49.618Z,14.4
2018-06-24T00:59:30.176Z,14.35
2018-06-24T01:00:10.814Z,14.32
2018-06-24T01:00:51.371Z,14.37
2018-06-24T01:01:31.924Z,14.36
2018-06-24T01:02:12.470Z,14.33
2018-06-24T01:02:53.025Z,14.36
2018-06-24T01:03:33.615Z,14.36
2018-06-24T01:04:14.169Z,14.32
2018-06-24T01:04:54.735Z,14.41
2018-06-24T01:05:35.279Z,14.35
2018-06-24T01:06:15.846Z,14.37
2018-06-24T01:06:56.434Z,14.41
2018-06-24T01:07:37.008Z,14.41
2018-06-24T01:08:17.572Z,14.4
2018-06-24T01:08:58.144Z,14.4
2018-06-24T01:09:38.695Z,14.33
2018-06-24T01:10:19.337Z,14.43
2018-06-24T01:10:59.908Z,14.37
2018-06-24T01:11:40.463Z,14.43
2018-06-24T01:12:21.015Z,14.36
2018-06-24T01:13:01.578Z,14.41
2018-06-24T01:13:42.143Z,14.36
2018-06-24T01:14:22.714Z,14.41
2018-06-24T01:15:03.267Z,14.35
2018-06-24T01:15:43.844Z,14.33
2018-06-24T01:16:24.414Z,14.33
2018-06-24T01:17:04.968Z,14.36
2018-06-24T01:17:45.567Z,14.35
2018-06-24T01:18:26.139Z,14.33
2018-06-24T01:19:06.698Z,14.3
2018-06-24T01:19:47.273Z,14.41
2018-06-24T01:20:27.842Z,14.41
2018-06-24T01:21:08.401Z,14.29
2018-06-24T01:21:48.950Z,14.37
2018-06-24T01:22:29.498Z,14.35
2018-06-24T01:23:10.055Z,14.3
2018-06-24T01:23:50.635Z,14.3
2018-06-24T01:24:31.212Z,14.26
2018-06-24T01:25:11.779Z,14.33
2018-06-24T01:25:52.330Z,14.35
2018-06-24T01:26:32.903Z,14.32
2018-06-24T01:27:13.440Z,14.25
2018-06-24T01:27:54.007Z,14.23
2018-06-24T01:28:34.556Z,14.28
2018-06-24T01:29:15.131Z,14.25
2018-06-24T01:29:55.701Z,14.28
2018-06-24T01:30:36.259Z,14.32
2018-06-24T01:31:16.821Z,14.28
2018-06-24T01:31:57.383Z,14.26
2018-06-24T01:32:37.945Z,14.23
2018-06-24T01:33:18.493Z,14.26
2018-06-24T01:33:59.053Z,14.25
2018-06-24T01:34:39.638Z,14.23
2018-06-24T01:35:20.218Z,14.25
2018-06-24T01:36:00.769Z,14.2
2018-06-24T01:36:41.319Z,14.23
2018-06-24T01:37:21.884Z,14.32
2018-06-24T01:38:02.450Z,14.23
2018-06-24T01:38:43.002Z,14.25
2018-06-24T01:39:23.559Z,14.26
2018-06-24T01:40:04.129Z,14.26
2018-06-24T01:40:44.693Z,14.23
2018-06-24T01:41:25.245Z,14.28
2018-06-24T01:42:05.824Z,14.3
2018-06-24T01:42:46.381Z,14.26
2018-06-24T01:43:26.939Z,14.26
2018-06-24T01:44:07.498Z,14.23
2018-06-24T01:44:48.066Z,14.32
2018-06-24T01:45:28.634Z,14.23
2018-06-24T01:46:09.210Z,14.23
2018-06-24T01:46:49.771Z,14.26
2018-06-24T01:47:30.370Z,14.3
2018-06-24T01:48:10.897Z,14.22
2018-06-24T01:48:51.465Z,14.28
2018-06-24T01:49:32.028Z,14.26
2018-06-24T01:50:12.585Z,14.28
2018-06-24T01:50:53.157Z,14.2
2018-06-24T01:51:33.727Z,14.22
2018-06-24T01:52:14.298Z,14.28
2018-06-24T01:52:54.870Z,14.3
2018-06-24T01:53:35.444Z,14.25
2018-06-24T01:54:16.014Z,14.26
2018-06-24T01:54:56.586Z,14.29
2018-06-24T01:55:37.137Z,14.26
2018-06-24T01:56:17.694Z,14.23
2018-06-24T01:56:58.255Z,14.26
2018-06-24T01:57:38.834Z,14.26
2018-06-24T01:58:19.406Z,14.23
2018-06-24T01:58:59.956Z,14.26
2018-06-24T01:59:40.523Z,14.18
2018-06-24T02:00:21.086Z,14.23
2018-06-24T02:01:01.649Z,14.3
2018-06-24T02:01:42.213Z,14.26
2018-06-24T02:02:22.773Z,14.25
2018-06-24T02:03:03.332Z,14.2
2018-06-24T02:03:43.906Z,14.26
2018-06-24T02:04:24.455Z,14.32
2018-06-24T02:05:05.076Z,14.28
2018-06-24T02:05:45.634Z,14.29
2018-06-24T02:06:26.205Z,14.26
2018-06-24T02:07:06.780Z,14.25
2018-06-24T02:07:47.343Z,14.26
2018-06-24T02:08:27.905Z,14.29
2018-06-24T02:09:08.481Z,14.26
2018-06-24T02:09:49.042Z,14.23
2018-06-24T02:10:29.610Z,14.26
2018-06-24T02:11:10.174Z,14.26
2018-06-24T02:11:50.734Z,14.26
2018-06-24T02:12:31.302Z,14.22
2018-06-24T02:13:11.910Z,14.25
2018-06-24T02:13:52.485Z,14.28
2018-06-24T02:14:33.054Z,14.32
2018-06-24T02:15:13.630Z,14.29
2018-06-24T02:15:54.198Z,14.23
2018-06-24T02:16:34.759Z,14.29
2018-06-24T02:17:15.330Z,14.23
2018-06-24T02:17:55.904Z,14.23
2018-06-24T02:18:36.462Z,14.26
2018-06-24T02:19:17.017Z,14.28
2018-06-24T02:19:57.572Z,14.23
2018-06-24T02:20:38.142Z,14.32
2018-06-24T02:21:18.705Z,14.22
2018-06-24T02:21:59.257Z,14.2
2018-06-24T02:22:39.792Z,14.29
2018-06-24T02:23:20.342Z,14.29
2018-06-24T02:24:00.889Z,14.28
2018-06-24T02:24:41.432Z,14.17
2018-06-24T02:25:21.999Z,14.25
2018-06-24T02:26:02.546Z,14.18
2018-06-24T02:26:43.097Z,14.2
2018-06-24T02:27:23.654Z,14.15
2018-06-24T02:28:04.221Z,14.18
2018-06-24T02:28:44.784Z,14.15
2018-06-24T02:29:25.340Z,14.22
2018-06-24T02:30:05.890Z,14.2
2018-06-24T02:30:46.469Z,14.29
2018-06-24T02:31:27.012Z,14.29
2018-06-24T02:32:07.572Z,14.29
2018-06-24T02:32:48.130Z,14.3
2018-06-24T02:33:28.685Z,14.3
2018-06-24T02:34:09.238Z,14.26
2018-06-24T02:34:49.810Z,14.3
2018-06-24T02:35:30.375Z,14.22
2018-06-24T02:36:10.930Z,14.26
2018-06-24T02:36:51.486Z,14.18
2018-06-24T02:37:32.047Z,14.28
2018-06-24T02:38:12.614Z,14.22
2018-06-24T02:38:53.206Z,14.25
2018-06-24T02:39:33.758Z,14.29
2018-06-24T02:40:14.319Z,14.28
2018-06-24T02:40:54.882Z,14.23
2018-06-24T02:41:35.458Z,14.3
2018-06-24T02:42:16.026Z,14.23
2018-06-24T02:42:56.593Z,14.3
2018-06-24T02:43:37.146Z,14.28
2018-06-24T02:44:17.697Z,14.22
2018-06-24T02:44:58.256Z,14.26
2018-06-24T02:45:38.845Z,14.22
2018-06-24T02:46:19.397Z,14.2
2018-06-24T02:46:59.965Z,14.15
2018-06-24T02:47:40.522Z,14.15
2018-06-24T02:48:21.085Z,14.18
2018-06-24T02:49:01.648Z,14.2
2018-06-24T02:49:42.210Z,14.18
2018-06-24T02:50:22.770Z,14.17
2018-06-24T02:51:03.337Z,14.11
2018-06-24T02:51:43.893Z,14.17
2018-06-24T02:52:24.439Z,14.15
2018-06-24T02:53:05.002Z,14.18
2018-06-24T02:53:45.568Z,14.18
2018-06-24T02:54:26.112Z,14.17
2018-06-24T02:55:06.679Z,14.14
2018-06-24T02:55:47.248Z,14.17
2018-06-24T02:56:27.824Z,14.18
2018-06-24T02:57:08.395Z,14.2
2018-06-24T02:57:48.948Z,14.17
2018-06-24T02:58:29.510Z,14.18
2018-06-24T02:59:10.072Z,14.2
2018-06-24T02:59:50.615Z,14.18
2018-06-24T03:00:31.163Z,14.22
2018-06-24T03:01:11.711Z,14.22
2018-06-24T03:01:52.290Z,14.18
2018-06-24T03:02:32.854Z,14.18
2018-06-24T03:03:13.401Z,14.15
2018-06-24T03:03:53.949Z,14.15
2018-06-24T03:04:34.514Z,14.17
2018-06-24T03:05:15.066Z,14.15
2018-06-24T03:05:55.621Z,14.22
2018-06-24T03:06:36.256Z,14.18
2018-06-24T03:07:16.902Z,14.07
2018-06-24T03:07:57.396Z,14.15
2018-06-24T03:08:37.973Z,14.17
2018-06-24T03:09:18.534Z,14.2
2018-06-24T03:09:59.106Z,14.15
2018-06-24T03:10:39.668Z,14.18
2018-06-24T03:11:20.222Z,14.15
2018-06-24T03:12:00.775Z,14.11
2018-06-24T03:12:41.332Z,14.08
2018-06-24T03:13:21.888Z,14.12
2018-06-24T03:14:02.442Z,14.07
2018-06-24T03:14:43.004Z,14.1
2018-06-24T03:15:23.542Z,14.03
2018-06-24T03:16:04.108Z,14.04
2018-06-24T03:16:44.662Z,14.04
2018-06-24T03:17:25.217Z,14.05
2018-06-24T03:18:05.808Z,14.08
2018-06-24T03:18:46.358Z,14.08
2018-06-24T03:19:26.927Z,14.07
2018-06-24T03:20:07.487Z,14.08
2018-06-24T03:20:48.038Z,14.05
2018-06-24T03:21:28.586Z,14.03
2018-06-24T03:22:09.156Z,14.05
2018-06-24T03:22:49.688Z,14.04
2018-06-24T03:23:30.238Z,14.03
2018-06-24T03:24:10.824Z,14.03
2018-06-24T03:24:51.390Z,14.05
2018-06-24T03:25:31.981Z,14.11
2018-06-24T03:26:12.550Z,14.03
2018-06-24T03:26:53.111Z,14.07
2018-06-24T03:27:33.670Z,14.03
2018-06-24T03:28:14.230Z,14.05
2018-06-24T03:28:54.797Z,14.04
2018-06-24T03:29:35.388Z,14
2018-06-24T03:30:15.948Z,14.05
2018-06-24T03:30:56.495Z,14.07
2018-06-24T03:31:37.058Z,14.03
2018-06-24T03:32:17.628Z,14.11
2018-06-24T03:32:58.210Z,14.04
2018-06-24T03:33:38.776Z,14.05
2018-06-24T03:34:19.342Z,14.1
2018-06-24T03:34:59.900Z,14.08
2018-06-24T03:35:40.463Z,14.1
2018-06-24T03:36:21.025Z,14.08
2018-06-24T03:37:01.601Z,14.07
2018-06-24T03:37:42.193Z,14.05
2018-06-24T03:38:22.729Z,14
2018-06-24T03:39:03.285Z,14.07
2018-06-24T03:39:43.837Z,14.08
2018-06-24T03:40:24.394Z,14.08
2018-06-24T03:41:04.946Z,14.11
2018-06-24T03:41:45.506Z,14.05
2018-06-24T03:42:26.075Z,14.04
2018-06-24T03:43:06.637Z,13.97
2018-06-24T03:43:47.187Z,14.05
2018-06-24T03:44:27.788Z,13.99
2018-06-24T03:45:08.336Z,14.03
2018-06-24T03:45:48.901Z,14
2018-06-24T03:46:29.460Z,14.03
2018-06-24T03:47:10.006Z,14.04
2018-06-24T03:47:50.571Z,14.03
2018-06-24T03:48:31.135Z,13.93
2018-06-24T03:49:11.694Z,13.99
2018-06-24T03:49:52.265Z,14.07
2018-06-24T03:50:32.855Z,14.05
2018-06-24T03:51:13.399Z,14.07
2018-06-24T03:51:53.975Z,14.03
2018-06-24T03:52:34.519Z,14.03
2018-06-24T03:53:15.066Z,13.99
2018-06-24T03:53:55.600Z,14.03
2018-06-24T03:54:36.155Z,14.07
2018-06-24T03:55:16.718Z,14.04
2018-06-24T03:55:57.294Z,14.05
2018-06-24T03:56:37.840Z,14.03
2018-06-24T03:57:18.420Z,14.04
2018-06-24T03:57:59.024Z,14.07
2018-06-24T03:58:39.552Z,14.07
2018-06-24T03:59:20.115Z,14.05
2018-06-24T04:00:00.685Z,14.05
2018-06-24T04:00:41.212Z,14.03
2018-06-24T04:01:21.769Z,14.07
2018-06-24T04:02:02.319Z,14.07
2018-06-24T04:02:42.867Z,14.08
2018-06-24T04:03:23.417Z,14.05
2018-06-24T04:04:03.974Z,14.1
2018-06-24T04:04:44.560Z,14.1
2018-06-24T04:05:25.063Z,14.1
2018-06-24T04:06:05.630Z,14.1
2018-06-24T04:06:46.252Z,14.12
2018-06-24T04:07:26.819Z,14.11
2018-06-24T04:08:07.382Z,14.11
2018-06-24T04:08:47.955Z,14.1
2018-06-24T04:09:28.517Z,14.14
2018-06-24T04:10:09.067Z,14.12
2018-06-24T04:10:49.608Z,14.08
2018-06-24T04:11:30.214Z,14.1
2018-06-24T04:12:10.753Z,14.14
2018-06-24T04:12:51.326Z,14.17
2018-06-24T04:13:31.868Z,14.12
2018-06-24T04:14:12.434Z,14.14
2018-06-24T04:14:52.990Z,14.17
2018-06-24T04:15:33.540Z,14.1
2018-06-24T04:16:14.090Z,14.1
2018-06-24T04:16:54.637Z,14.15
2018-06-24T04:17:35.277Z,14.17
2018-06-24T04:18:15.847Z,14.12
2018-06-24T04:18:56.387Z,14.17
2018-06-24T04:19:37.022Z,14.14
2018-06-24T04:20:17.593Z,14.08
2018-06-24T04:20:58.157Z,14.08
2018-06-24T04:21:38.701Z,14.12
2018-06-24T04:22:19.264Z,14.12
2018-06-24T04:22:59.824Z,14.11
2018-06-24T04:23:40.388Z,14.12
2018-06-24T04:24:20.903Z,14.15
2018-06-24T04:25:01.483Z,14.12
2018-06-24T04:25:42.021Z,14.1
2018-06-24T04:26:22.556Z,14.12
2018-06-24T04:27:03.141Z,14.14
2018-06-24T04:27:43.691Z,14.03
2018-06-24T04:28:24.247Z,14.15
2018-06-24T04:29:04.824Z,14.1
2018-06-24T04:29:45.394Z,14.15
2018-06-24T04:30:25.945Z,14.12
2018-06-24T04:31:06.490Z,14.1
2018-06-24T04:31:47.046Z,14.12
2018-06-24T04:32:27.611Z,14.15
2018-06-24T04:33:08.163Z,14.11
2018-06-24T04:33:48.705Z,14.15
2018-06-24T04:34:29.268Z,14.17
2018-06-24T04:35:09.828Z,14.15
2018-06-24T04:35:50.363Z,14.12
2018-06-24T04:36:30.918Z,14.11
2018-06-24T04:37:11.483Z,14.2
2018-06-24T04:37:52.022Z,14.14
2018-06-24T04:38:32.569Z,14.17
2018-06-24T04:39:13.119Z,14.12
2018-06-24T04:39:53.688Z,14.1
2018-06-24T04:40:34.234Z,14.15
2018-06-24T04:41:14.784Z,14.11
2018-06-24T04:41:55.323Z,14.1
2018-06-24T04:42:35.881Z,14.1
2018-06-24T04:43:16.422Z,14.17
2018-06-24T04:43:56.958Z,14.15
2018-06-24T04:44:37.511Z,14.12
2018-06-24T04:45:18.060Z,14.15
2018-06-24T04:45:58.602Z,14.15
2018-06-24T04:46:39.170Z,14.11
2018-06-24T04:47:19.728Z,14.15
2018-06-24T04:48:00.288Z,14.11
2018-06-24T04:48:40.820Z,14.12
2018-06-24T04:49:21.378Z,14.12
2018-06-24T04:50:01.929Z,14.17
2018-06-24T04:50:42.475Z,14.1
2018-06-24T04:51:23.030Z,14.07
2018-06-24T04:52:03.572Z,14.11
2018-06-24T04:52:44.127Z,14.12
2018-06-24T04:53:24.709Z,14.14
2018-06-24T04:54:05.280Z,14.07
2018-06-24T04:54:45.861Z,14.08
2018-06-24T04:55:26.419Z,14.14
2018-06-24T04:56:06.966Z,14.18
2018-06-24T04:56:47.518Z,14.17
2018-06-24T04:57:28.081Z,14.11
2018-06-24T04:58:08.619Z,14.1
2018-06-24T04:58:49.177Z,14.14
2018-06-24T04:59:29.729Z,14.11
2018-06-24T05:00:10.274Z,14.11
2018-06-24T05:00:50.830Z,14.11
2018-06-24T05:01:31.392Z,14.07
2018-06-24T05:02:11.969Z,14.08
2018-06-24T05:02:52.521Z,14.07
2018-06-24T05:03:33.087Z,14.05
2018-06-24T05:04:13.639Z,14.1
2018-06-24T05:04:54.193Z,14.07
2018-06-24T05:05:34.747Z,14.08
2018-06-24T05:06:15.308Z,14.1
2018-06-24T05:06:55.896Z,14.07
2018-06-24T05:07:36.428Z,14.08
2018-06-24T05:08:17.003Z,14.07
2018-06-24T05:08:57.540Z,14.1
2018-06-24T05:09:38.093Z,14.08
2018-06-24T05:10:18.647Z,14.12
2018-06-24T05:10:59.207Z,14.12
2018-06-24T05:11:39.759Z,14.08
2018-06-24T05:12:20.305Z,14.11
2018-06-24T05:13:00.848Z,14.08
2018-06-24T05:13:41.397Z,14.07
2018-06-24T05:14:21.948Z,14.1
2018-06-24T05:15:02.519Z,14.11
2018-06-24T05:15:43.094Z,14.08
2018-06-24T05:16:23.649Z,14.04
2018-06-24T05:17:04.217Z,14.11
2018-06-24T05:17:44.755Z,14.11
2018-06-24T05:18:25.326Z,14.11
2018-06-24T05:19:05.882Z,14.11
2018-06-24T05:19:46.441Z,14.17
2018-06-24T05:20:27.002Z,14.12
2018-06-24T05:21:07.550Z,14.15
2018-06-24T05:21:48.104Z,14.23
2018-06-24T05:22:28.658Z,14.18
2018-06-24T05:23:09.217Z,14.2
2018-06-24T05:23:49.757Z,14.14
2018-06-24T05:24:30.297Z,14.18
2018-06-24T05:25:10.851Z,14.23
2018-06-24T05:25:51.406Z,14.14
2018-06-24T05:26:31.967Z,14.17
2018-06-24T05:27:12.539Z,14.28
2018-06-24T05:27:53.074Z,14.25
2018-06-24T05:28:33.632Z,14.26
2018-06-24T05:29:14.176Z,14.25
2018-06-24T05:29:54.725Z,14.25
2018-06-24T05:30:35.301Z,14.2
2018-06-24T05:31:15.856Z,14.29
2018-06-24T05:31:56.437Z,14.2
2018-06-24T05:32:37.002Z,14.3
2018-06-24T05:33:17.559Z,14.23
2018-06-24T05:33:58.115Z,14.3
2018-06-24T05:34:38.665Z,14.28
2018-06-24T05:35:19.215Z,14.28
2018-06-24T05:35:59.783Z,14.28
2018-06-24T05:36:40.344Z,14.32
2018-06-24T05:37:20.913Z,14.23
2018-06-24T05:38:01.470Z,14.2
2018-06-24T05:38:42.033Z,14.22
2018-06-24T05:39:22.584Z,14.14
2018-06-24T05:40:03.155Z,14.2
2018-06-24T05:40:43.723Z,14.14
2018-06-24T05:41:24.304Z,14.17
2018-06-24T05:42:04.873Z,14.14
2018-06-24T05:42:45.439Z,14.17
2018-06-24T05:43:26.004Z,14.15
2018-06-24T05:44:06.615Z,14.17
2018-06-24T05:44:47.186Z,14.11
2018-06-24T05:45:27.757Z,14.12
2018-06-24T05:46:08.308Z,14.17
2018-06-24T05:46:48.858Z,14.12
2018-06-24T05:47:29.409Z,14.08
2018-06-24T05:48:09.981Z,14.12
2018-06-24T05:48:50.576Z,14.12
2018-06-24T05:49:31.094Z,14.11
2018-06-24T05:50:11.635Z,14.1
2018-06-24T05:50:52.183Z,14.18
2018-06-24T05:51:32.741Z,14.2
2018-06-24T05:52:13.296Z,14.23
2018-06-24T05:52:53.857Z,14.14
2018-06-24T05:53:34.406Z,14.22
2018-06-24T05:54:15.000Z,14.18
2018-06-24T05:54:55.506Z,14.26
2018-06-24T05:55:36.036Z,14.15
2018-06-24T05:56:16.588Z,14.18
2018-06-24T05:56:57.164Z,14.14
2018-06-24T05:57:37.749Z,14.14
2018-06-24T05:58:18.295Z,14.12
2018-06-24T05:58:58.841Z,14.17
2018-06-24T05:59:39.407Z,14.22
2018-06-24T06:00:19.964Z,14.18
2018-06-24T06:01:00.517Z,14.22
2018-06-24T06:01:41.090Z,14.22
2018-06-24T06:02:21.653Z,14.18
2018-06-24T06:03:02.270Z,14.15
2018-06-24T06:03:42.872Z,14.25
2018-06-24T06:04:23.438Z,14.28
2018-06-24T06:05:04.052Z,14.28
2018-06-24T06:05:44.612Z,14.28
2018-06-24T06:06:25.179Z,14.29
2018-06-24T06:07:05.835Z,14.29
2018-06-24T06:07:46.390Z,14.32
2018-06-24T06:08:26.934Z,14.25
2018-06-24T06:09:07.522Z,14.3
2018-06-24T06:09:48.084Z,14.26
2018-06-24T06:10:28.743Z,14.37
2018-06-24T06:11:09.191Z,14.33
2018-06-24T06:11:49.740Z,14.33
2018-06-24T06:12:30.311Z,14.35
2018-06-24T06:13:10.856Z,14.33
2018-06-24T06:13:51.416Z,14.33
2018-06-24T06:14:31.963Z,14.3
2018-06-24T06:15:12.527Z,14.32
2018-06-24T06:15:53.126Z,14.3
2018-06-24T06:16:33.676Z,14.36
2018-06-24T06:17:14.289Z,14.35
2018-06-24T06:17:54.839Z,14.35
2018-06-24T06:18:35.369Z,14.35
2018-06-24T06:19:15.959Z,14.29
2018-06-24T06:19:56.498Z,14.32
2018-06-24T06:20:37.071Z,14.3
2018-06-24T06:21:17.637Z,14.32
2018-06-24T06:21:58.200Z,14.36
2018-06-24T06:22:38.772Z,14.35
2018-06-24T06:23:19.309Z,14.35
2018-06-24T06:23:59.865Z,14.41
2018-06-24T06:24:40.409Z,14.43
2018-06-24T06:25:20.978Z,14.32
2018-06-24T06:26:01.529Z,14.41
2018-06-24T06:26:42.078Z,14.3
2018-06-24T06:27:22.624Z,14.35
2018-06-24T06:28:03.181Z,14.35
2018-06-24T06:28:43.740Z,14.32
2018-06-24T06:29:24.311Z,14.36
2018-06-24T06:30:04.886Z,14.37
2018-06-24T06:30:45.436Z,14.32
2018-06-24T06:31:26.144Z,14.29
2018-06-24T06:32:06.681Z,14.29
2018-06-24T06:32:47.228Z,14.3
2018-06-24T06:33:27.769Z,14.26
2018-06-24T06:34:08.326Z,14.32
2018-06-24T06:34:48.871Z,14.32
2018-06-24T06:35:29.442Z,14.3
2018-06-24T06:36:10.035Z,14.33
2018-06-24T06:36:50.684Z,14.35
2018-06-24T06:37:31.240Z,14.25
2018-06-24T06:38:11.837Z,14.28
2018-06-24T06:38:52.445Z,14.29
2018-06-24T06:39:33.063Z,14.3
2018-06-24T06:40:13.629Z,14.29
2018-06-24T06:40:54.207Z,14.3
2018-06-24T06:41:34.793Z,14.26
2018-06-24T06:42:15.390Z,14.29
2018-06-24T06:42:55.927Z,14.2
2018-06-24T06:43:36.476Z,14.26
2018-06-24T06:44:17.028Z,14.28
2018-06-24T06:44:57.651Z,14.29
2018-06-24T06:45:38.382Z,14.25
2018-06-24T06:46:18.714Z,14.32
2018-06-24T06:46:59.332Z,14.33
2018-06-24T06:47:39.912Z,14.29
2018-06-24T06:48:20.546Z,14.29
2018-06-24T06:49:01.084Z,14.35
2018-06-24T06:49:41.672Z,14.35
2018-06-24T06:50:22.282Z,14.36
2018-06-24T06:51:02.885Z,14.37
2018-06-24T06:51:43.432Z,14.43
2018-06-24T06:52:24.127Z,14.43
2018-06-24T06:53:04.647Z,14.4
2018-06-24T06:53:45.301Z,14.44
2018-06-24T06:54:25.852Z,14.48
2018-06-24T06:55:06.395Z,14.35
2018-06-24T06:55:46.960Z,14.41
2018-06-24T06:56:27.522Z,14.43
2018-06-24T06:57:08.050Z,14.33
2018-06-24T06:57:48.709Z,14.47
2018-06-24T06:58:29.287Z,14.4
2018-06-24T06:59:09.905Z,14.36
2018-06-24T06:59:50.507Z,14.35
2018-06-24T07:00:31.036Z,14.36
2018-06-24T07:01:11.702Z,14.47
2018-06-24T07:01:52.317Z,14.48
2018-06-24T07:02:32.944Z,14.51
2018-06-24T07:03:13.488Z,14.44
2018-06-24T07:03:54.229Z,14.5
2018-06-24T07:04:34.784Z,14.44
2018-06-24T07:05:15.433Z,14.53
2018-06-24T07:05:56.086Z,14.54
2018-06-24T07:06:36.701Z,14.45
2018-06-24T07:07:17.242Z,14.53
2018-06-24T07:07:57.883Z,14.48
2018-06-24T07:08:38.512Z,14.58
2018-06-24T07:09:19.149Z,14.51
2018-06-24T07:09:59.721Z,14.53
2018-06-24T07:10:40.383Z,14.58
2018-06-24T07:11:20.948Z,14.48
2018-06-24T07:12:01.727Z,14.48
2018-06-24T07:12:42.461Z,14.5
2018-06-24T07:13:23.032Z,14.48
2018-06-24T07:14:03.647Z,14.51
2018-06-24T07:14:44.235Z,14.48
2018-06-24T07:15:24.784Z,14.53
2018-06-24T07:16:05.452Z,14.54
2018-06-24T07:16:46.073Z,14.51
2018-06-24T07:17:26.656Z,14.53
2018-06-24T07:18:07.221Z,14.54
2018-06-24T07:18:47.800Z,14.54
2018-06-24T07:19:28.508Z,14.51
2018-06-24T07:20:09.158Z,14.51
2018-06-24T07:20:49.777Z,14.51
2018-06-24T07:21:30.323Z,14.41
2018-06-24T07:22:11.008Z,14.53
2018-06-24T07:22:51.580Z,14.47
2018-06-24T07:23:32.168Z,14.48
2018-06-24T07:24:12.706Z,14.55
2018-06-24T07:24:53.297Z,14.5
2018-06-24T07:25:33.878Z,14.58
2018-06-24T07:26:14.452Z,14.5
2018-06-24T07:26:54.991Z,14.55
2018-06-24T07:27:35.600Z,14.54
2018-06-24T07:28:16.227Z,14.53
2018-06-24T07:28:56.853Z,14.51
2018-06-24T07:29:37.527Z,14.48
2018-06-24T07:30:18.096Z,14.43
2018-06-24T07:30:58.664Z,14.58
2018-06-24T07:31:39.264Z,14.54
2018-06-24T07:32:20.108Z,14.53
2018-06-24T07:33:00.886Z,14.48
2018-06-24T07:33:41.853Z,14.63
2018-06-24T07:34:22.639Z,14.53
2018-06-24T07:35:03.277Z,14.48
2018-06-24T07:35:44.049Z,14.5
2018-06-24T07:36:24.701Z,14.65
2018-06-24T07:37:05.474Z,14.54
2018-06-24T07:37:46.154Z,14.58
2018-06-24T07:38:26.795Z,14.51
2018-06-24T07:39:07.827Z,14.59
2018-06-24T07:39:48.662Z,14.55
2018-06-24T07:40:29.477Z,14.58
2018-06-24T07:41:10.209Z,14.65
2018-06-24T07:41:50.956Z,14.66
2018-06-24T07:42:31.748Z,14.7
2018-06-24T07:43:12.316Z,14.7
2018-06-24T07:43:53.048Z,14.68
2018-06-24T07:44:33.560Z,14.66
2018-06-24T07:45:14.117Z,14.72
2018-06-24T07:45:54.728Z,14.63
2018-06-24T07:46:35.277Z,14.59
2018-06-24T07:47:15.833Z,14.58
2018-06-24T07:47:56.450Z,14.59
2018-06-24T07:48:37.044Z,14.62
2018-06-24T07:49:17.662Z,14.53
2018-06-24T07:49:58.216Z,14.62
2018-06-24T07:50:39.148Z,14.59
2018-06-24T07:51:19.843Z,14.58
2018-06-24T07:52:00.404Z,14.6
2018-06-24T07:52:41.524Z,14.65
2018-06-24T07:53:23.781Z,14.7
2018-06-24T07:54:05.425Z,14.84
2018-06-24T07:54:46.268Z,14.91
2018-06-24T07:55:27.663Z,14.99
2018-06-24T07:56:08.245Z,15.03
2018-06-24T07:56:48.811Z,15.06
2018-06-24T07:57:29.419Z,15.07
2018-06-24T07:58:10.079Z,15.1
2018-06-24T07:58:50.647Z,15.17
2018-06-24T07:59:31.442Z,15.19
2018-06-24T08:00:12.160Z,15.25
2018-06-24T08:00:52.756Z,15.27
2018-06-24T08:01:33.331Z,15.37
2018-06-24T08:02:14.325Z,15.46
2018-06-24T08:02:55.169Z,15.43
2018-06-24T08:03:35.697Z,15.54
2018-06-24T08:04:16.474Z,15.61
2018-06-24T08:04:57.081Z,15.65
2018-06-24T08:05:37.757Z,15.58
2018-06-24T08:06:19.758Z,15.72
2018-06-24T08:07:00.446Z,15.7
2018-06-24T08:07:41.040Z,15.79
2018-06-24T08:08:21.623Z,15.75
2018-06-24T08:09:02.185Z,15.77
2018-06-24T08:09:42.861Z,15.88
2018-06-24T08:10:23.405Z,15.84
2018-06-24T08:11:04.238Z,15.8
2018-06-24T08:11:44.914Z,15.67
2018-06-24T08:12:25.495Z,15.72
2018-06-24T08:13:06.047Z,15.64
2018-06-24T08:13:46.803Z,15.58
2018-06-24T08:14:27.503Z,15.62
2018-06-24T08:15:09.108Z,15.58
2018-06-24T08:15:50.144Z,15.51
2018-06-24T08:16:31.025Z,15.51
2018-06-24T08:17:11.685Z,15.51
2018-06-24T08:17:52.739Z,15.37
2018-06-24T08:18:34.425Z,15.25
2018-06-24T08:19:15.157Z,15.33
2018-06-24T08:19:56.280Z,15.35
2018-06-24T08:20:38.249Z,15.24
2018-06-24T08:21:20.057Z,15.27
2018-06-24T08:22:03.111Z,15.22
2018-06-24T08:22:43.677Z,15.22
2018-06-24T08:23:24.193Z,15.1
2018-06-24T08:24:04.786Z,15.09
2018-06-24T08:24:45.319Z,15.1
2018-06-24T08:25:25.835Z,15.06
2018-06-24T08:26:06.478Z,15.09
2018-06-24T08:26:47.073Z,15.03
2018-06-24T08:27:27.653Z,15.02
2018-06-24T08:28:08.244Z,15.04
2018-06-24T08:28:48.803Z,15
2018-06-24T08:29:29.354Z,15
2018-06-24T08:30:09.938Z,14.99
2018-06-24T08:30:50.475Z,14.97
2018-06-24T08:31:31.053Z,14.97
2018-06-24T08:32:11.601Z,14.94
2018-06-24T08:32:52.179Z,15
2018-06-24T08:33:32.729Z,15.02
2018-06-24T08:34:13.297Z,15.04
2018-06-24T08:34:53.864Z,14.96
2018-06-24T08:35:34.518Z,15.02
2018-06-24T08:36:15.197Z,14.99
2018-06-24T08:36:55.776Z,14.92
2018-06-24T08:37:36.364Z,14.86
2018-06-24T08:38:16.910Z,14.92
2018-06-24T08:38:57.502Z,14.82
2018-06-24T08:39:38.002Z,14.86
2018-06-24T08:40:18.557Z,14.89
2018-06-24T08:40:59.107Z,14.85
2018-06-24T08:41:39.660Z,14.86
2018-06-24T08:42:20.256Z,14.85
2018-06-24T08:43:00.888Z,14.89
2018-06-24T08:43:41.411Z,14.88
2018-06-24T08:44:22.069Z,14.88
2018-06-24T08:45:02.624Z,14.88
2018-06-24T08:45:43.182Z,14.88